Time;durP1;ratioP1;P1;durP2;ratioP2;P2;SDS_P1;SDS_P2;PMS_P1;PMS_P2;Temp;Humidity;BMP_temperature;BMP_pressure;BME280_temperature;BME280_humidity;BME280_pressure;Samples;Min_cycle;Max_cycle;Signal;HPM_P1;HPM_P2
2022/07/28 00:08:30;;;;;;;1.88;0.40;;;;;;;;;;21070499;28;20259;-68
2022/07/28 00:18:32;;;;;;;0.80;0.30;;;;;;;;;;21070921;28;20613;-68
2022/07/28 00:28:34;;;;;;;2.72;0.45;;;;;;;;;;21327514;22;20227;-72
2022/07/28 00:38:36;;;;;;;0.88;0.30;;;;;;;;;;21304138;27;20368;-72
2022/07/28 00:48:39;;;;;;;0.20;0.20;;;21.20;87.40;;;;;;21322371;27;20257;-72
2022/07/28 00:58:41;;;;;;;0.45;0.20;;;;;;;;;;21335389;27;20211;-71
2022/07/28 01:09:10;;;;;;;0.80;0.30;;;20.80;79.40;;;;;;21339786;27;20706;-72
2022/07/28 01:19:28;;;;;;;2.33;0.40;;;;;;;;;;21316791;27;20775;-72
2022/07/28 01:29:39;;;;;;;0.45;0.28;;;20.80;79.40;;;;;;21249991;27;20263;-72
2022/07/28 01:39:41;;;;;;;0.40;0.30;;;20.50;90.90;;;;;;21251003;27;20283;-72
2022/07/28 01:49:45;;;;;;;1.02;0.35;;;20.40;90.70;;;;;;21250450;27;20279;-72
2022/07/28 01:59:47;;;;;;;1.48;0.30;;;;;;;;;;21250354;27;20239;-72
2022/07/28 02:09:54;;;;;;;0.70;0.40;;;;;;;;;;21246356;27;20206;-74
2022/07/28 02:19:57;;;;;;;0.30;0.20;;;20.30;83.50;;;;;;21247771;27;20240;-72
2022/07/28 02:30:04;;;;;;;1.10;0.25;;;;;;;;;;21247816;27;20262;-72
2022/07/28 02:40:09;;;;;;;1.30;0.40;;;;;;;;;;21245046;27;20208;-72
2022/07/28 02:50:13;;;;;;;1.40;0.40;;;20.10;88.60;;;;;;21245087;27;20207;-72
2022/07/28 03:00:15;;;;;;;0.40;0.20;;;;;;;;;;21244016;27;20239;-72
2022/07/28 03:10:18;;;;;;;0.30;0.30;;;19.90;92.40;;;;;;21241932;27;20588;-72
2022/07/28 03:20:23;;;;;;;0.90;0.43;;;;;;;;;;21253709;27;20222;-72
2022/07/28 03:30:29;;;;;;;0.23;0.20;;;20.00;92.20;;;;;;21327321;27;20209;-72
2022/07/28 03:40:31;;;;;;;0.90;0.20;;;;;;;;;;21308907;27;20213;-72
2022/07/28 03:50:33;;;;;;;0.30;0.30;;;20.70;85.60;;;;;;21342703;27;20664;-72
2022/07/28 04:00:35;;;;;;;1.43;0.40;;;;;;;;;;21326151;27;20237;-72
2022/07/28 04:10:36;;;;;;;2.83;0.30;;;;;;;;;;21307544;27;20201;-72
2022/07/28 04:20:38;;;;;;;0.40;0.20;;;;;;;;;;21310107;27;20217;-73
2022/07/28 04:30:40;;;;;;;0.30;0.30;;;;;;;;;;21238746;27;20206;-73
2022/07/28 04:40:42;;;;;;;2.83;0.47;;;;;;;;;;21234532;27;20209;-73
2022/07/28 04:50:44;;;;;;;2.23;0.40;;;;;;;;;;21236518;28;20275;-72
2022/07/28 05:00:46;;;;;;;0.63;0.30;;;;;;;;;;21236658;28;20205;-72
2022/07/28 05:10:48;;;;;;;1.53;0.33;;;;;;;;;;21237677;28;20247;-72
2022/07/28 05:20:49;;;;;;;0.40;0.20;;;;;;;;;;21234895;28;20214;-73
2022/07/28 05:30:51;;;;;;;1.17;0.50;;;;;;;;;;21235831;28;20298;-72
2022/07/28 05:40:53;;;;;;;0.93;0.30;;;;;;;;;;21226331;27;20214;-71
2022/07/28 05:50:55;;;;;;;0.47;0.33;;;;;;;;;;21186525;27;20222;-71
2022/07/28 06:01:02;;;;;;;1.27;0.30;;;20.00;88.40;;;;;;21250976;27;20226;-71
2022/07/28 06:11:10;;;;;;;0.50;0.30;;;;;;;;;;21248347;27;20574;-70
2022/07/28 06:21:12;;;;;;;0.83;0.20;;;;;;;;;;21247086;27;20277;-70
2022/07/28 06:31:13;;;;;;;0.73;0.40;;;;;;;;;;21247514;27;20203;-72
2022/07/28 06:41:15;;;;;;;1.37;0.50;;;;;;;;;;21245261;27;20218;-72
2022/07/28 06:51:18;;;;;;;0.60;0.30;;;;;;;;;;21243956;27;20243;-70
2022/07/28 07:01:20;;;;;;;0.97;0.40;;;;;;;;;;21243844;27;20218;-70
2022/07/28 07:11:22;;;;;;;1.03;0.40;;;;;;;;;;21243470;27;20265;-71
2022/07/28 07:21:23;;;;;;;0.73;0.30;;;;;;;;;;21263607;27;20282;-72
2022/07/28 07:31:25;;;;;;;0.83;0.50;;;;;;;;;;21328868;27;20210;-71
2022/07/28 07:41:27;;;;;;;1.40;0.40;;;;;;;;;;21277389;27;20213;-72
2022/07/28 07:51:28;;;;;;;0.67;0.30;;;;;;;;;;21323060;27;20213;-72
2022/07/28 08:01:31;;;;;;;0.85;0.45;;;;;;;;;;21324609;27;20235;-71
2022/07/28 08:11:32;;;;;;;1.67;0.50;;;;;;;;;;21323579;27;20203;-72
2022/07/28 08:21:34;;;;;;;1.48;0.50;;;;;;;;;;21302492;27;20208;-72
2022/07/28 08:31:36;;;;;;;1.00;0.60;;;;;;;;;;21236326;27;20628;-72
2022/07/28 08:41:51;;;;;;;1.40;0.50;;;22.60;92.70;;;;;;21235640;28;20220;-72
2022/07/28 08:51:55;;;;;;;1.85;0.52;;;;;;;;;;21236791;28;20548;-73
2022/07/28 09:01:57;;;;;;;2.38;0.85;;;;;;;;;;21236814;28;20698;-72
2022/07/28 09:12:02;;;;;;;2.00;0.52;;;23.80;90.30;;;;;;21236284;28;20261;-72
2022/07/28 09:22:03;;;;;;;2.05;0.70;;;;;;;;;;21278138;27;20254;-73
2022/07/28 09:32:06;;;;;;;1.08;0.60;;;;;;;;;;21337709;27;20207;-73
2022/07/28 09:42:08;;;;;;;2.90;0.75;;;;;;;;;;21318550;27;20627;-73
2022/07/28 09:52:09;;;;;;;1.20;0.63;;;;;;;;;;21336129;27;20244;-73
2022/07/28 10:02:12;;;;;;;1.60;0.70;;;;;;;;;;21334692;27;20592;-73
2022/07/28 10:12:14;;;;;;;1.52;0.68;;;;;;;;;;21334981;27;20213;-72
2022/07/28 10:22:17;;;;;;;1.33;0.70;;;24.80;91.70;;;;;;21332445;27;20217;-73
2022/07/28 10:32:19;;;;;;;1.55;0.70;;;25.00;86.00;;;;;;21313711;27;20195;-73
2022/07/28 10:42:21;;;;;;;1.00;0.73;;;;;;;;;;21313358;27;20216;-72
2022/07/28 10:52:24;;;;;;;1.40;0.70;;;;;;;;;;21332881;27;20208;-73
2022/07/28 11:02:50;;;;;;;1.10;0.70;;;26.70;75.60;;;;;;21329829;27;20576;-72
2022/07/28 11:12:56;;;;;;;2.05;0.75;;;;;;;;;;21329240;27;20675;-71
2022/07/28 11:23:35;;;;;;;1.70;0.70;;;26.90;84.10;;;;;;21328481;27;20215;-72
2022/07/28 11:33:54;;;;;;;1.17;0.70;;;;;;;;;;21326693;27;20222;-72
2022/07/28 11:43:58;;;;;;;1.23;0.88;;;;;;;;;;21325809;27;20201;-72
2022/07/28 11:54:01;;;;;;;1.52;0.70;;;;;;;;;;21306670;27;20308;-72
2022/07/28 12:04:10;;;;;;;0.68;0.50;;;;;;;;;;21323651;27;20209;-73
2022/07/28 12:14:13;;;;;;;0.95;0.50;;;27.80;84.00;;;;;;21302896;27;20209;-72
2022/07/28 12:24:16;;;;;;;1.20;0.70;;;;;;;;;;21196125;22;20225;-72
2022/07/28 12:34:19;;;;;;;1.38;0.70;;;;;;;;;;21222429;27;20224;-71
2022/07/28 12:44:21;;;;;;;3.53;0.80;;;;;;;;;;21216669;28;20640;-73
2022/07/28 12:54:34;;;;;;;2.00;0.60;;;28.10;78.40;;;;;;21185057;27;20218;-71
2022/07/28 13:04:36;;;;;;;0.60;0.47;;;;;;;;;;21168588;28;20742;-71
2022/07/28 13:14:43;;;;;;;2.70;0.80;;;27.70;83.10;;;;;;21158382;28;20725;-72
2022/07/28 13:24:44;;;;;;;0.73;0.50;;;;;;;;;;21157989;28;20218;-72
2022/07/28 13:34:46;;;;;;;3.22;0.70;;;28.20;71.30;;;;;;21165363;28;20230;-72
2022/07/28 13:44:48;;;;;;;1.38;0.75;;;;;;;;;;21163250;28;20220;-72
2022/07/28 13:54:50;;;;;;;2.15;0.80;;;;;;;;;;21165015;28;20388;-72
2022/07/28 14:04:52;;;;;;;1.40;0.80;;;;;;;;;;21157802;28;20209;-72
2022/07/28 14:14:54;;;;;;;1.92;0.70;;;;;;;;;;21155380;28;20645;-72
2022/07/28 14:24:56;;;;;;;1.77;0.82;;;;;;;;;;21130490;28;20241;-71
2022/07/28 14:34:58;;;;;;;2.92;0.70;;;;;;;;;;21172888;27;20267;-71
2022/07/28 14:45:01;;;;;;;1.83;0.80;;;;;;;;;;21237679;27;20271;-71
2022/07/28 14:55:02;;;;;;;1.10;0.80;;;;;;;;;;21134837;28;20274;-70
2022/07/28 15:05:05;;;;;;;1.50;0.60;;;;;;;;;;21160125;28;20275;-70
2022/07/28 15:15:07;;;;;;;1.27;0.60;;;28.50;77.00;;;;;;21152971;28;20234;-72
2022/07/28 15:25:08;;;;;;;0.77;0.50;;;;;;;;;;21107204;27;20292;-71
2022/07/28 15:35:10;;;;;;;2.35;0.77;;;;;;;;;;21155969;28;20226;-71
2022/07/28 15:45:12;;;;;;;1.60;0.55;;;;;;;;;;21206383;27;20346;-71
2022/07/28 15:55:14;;;;;;;1.00;0.60;;;;;;;;;;21177879;27;20585;-71
2022/07/28 16:05:15;;;;;;;1.65;0.77;;;;;;;;;;21154710;28;20287;-72
2022/07/28 16:15:17;;;;;;;1.30;0.85;;;28.40;84.70;;;;;;21150026;28;20214;-72
2022/07/28 16:25:20;;;;;;;2.60;0.82;;;;;;;;;;21134342;28;20256;-71
2022/07/28 16:35:22;;;;;;;2.15;0.98;;;;;;;;;;21154035;28;20609;-71
2022/07/28 16:45:23;;;;;;;1.85;0.77;;;;;;;;;;21140736;28;20247;-71
2022/07/28 16:55:26;;;;;;;1.40;0.80;;;;;;;;;;21122483;28;20237;-71
2022/07/28 17:05:29;;;;;;;2.72;0.90;;;;;;;;;;21137670;28;20225;-71
2022/07/28 17:15:32;;;;;;;2.83;0.85;;;;;;;;;;21132214;28;20292;-71
2022/07/28 17:25:34;;;;;;;1.73;0.82;;;;;;;;;;21130299;28;20758;-71
2022/07/28 17:35:37;;;;;;;2.17;0.55;;;27.80;74.40;;;;;;21135878;28;20222;-71
2022/07/28 17:45:39;;;;;;;1.15;0.70;;;;;;;;;;21150457;28;20203;-71
2022/07/28 17:55:44;;;;;;;1.83;0.65;;;;;;;;;;21152877;28;20256;-72
2022/07/28 18:05:46;;;;;;;3.70;0.70;;;27.50;77.00;;;;;;21152095;28;20738;-72
2022/07/28 18:15:48;;;;;;;1.55;0.73;;;;;;;;;;21148180;28;20436;-71
2022/07/28 18:25:50;;;;;;;2.20;0.80;;;;;;;;;;21097840;22;20231;-72
2022/07/28 18:35:52;;;;;;;0.65;0.30;;;;;;;;;;21082737;28;20219;-72
2022/07/28 18:45:54;;;;;;;1.08;0.57;;;;;;;;;;21140006;28;20326;-72
2022/07/28 18:55:55;;;;;;;1.13;0.60;;;;;;;;;;21133687;28;20218;-71
2022/07/28 19:05:58;;;;;;;2.22;0.47;;;;;;;;;;21130256;28;20218;-71
2022/07/28 19:15:59;;;;;;;0.70;0.35;;;;;;;;;;21105805;28;20696;-71
2022/07/28 19:26:01;;;;;;;2.72;0.60;;;;;;;;;;21111264;28;20221;-71
2022/07/28 19:36:03;;;;;;;1.35;0.60;;;;;;;;;;21135985;28;20704;-71
2022/07/28 19:46:05;;;;;;;0.75;0.50;;;;;;;;;;21125194;28;20270;-72
2022/07/28 19:56:07;;;;;;;1.20;0.50;;;;;;;;;;21147498;28;20610;-72
2022/07/28 20:06:09;;;;;;;1.98;0.60;;;;;;;;;;21114334;28;20254;-71
2022/07/28 20:16:10;;;;;;;1.33;0.57;;;;;;;;;;21114583;28;20273;-70
2022/07/28 20:26:13;;;;;;;0.88;0.60;;;;;;;;;;21138068;28;20567;-70
2022/07/28 20:36:15;;;;;;;2.17;0.60;;;;;;;;;;21122231;28;20239;-70
2022/07/28 20:46:16;;;;;;;0.90;0.52;;;;;;;;;;21130614;28;20205;-71
2022/07/28 20:56:19;;;;;;;1.08;0.50;;;;;;;;;;21139794;28;20220;-71
2022/07/28 21:06:20;;;;;;;1.13;0.60;;;;;;;;;;21128472;28;20275;-71
2022/07/28 21:16:22;;;;;;;0.73;0.50;;;;;;;;;;21159475;28;20218;-70
2022/07/28 21:26:24;;;;;;;2.60;0.70;;;;;;;;;;21145730;28;20321;-70
2022/07/28 21:36:27;;;;;;;2.17;0.68;;;;;;;;;;21153636;28;20716;-70
2022/07/28 21:46:28;;;;;;;1.40;0.60;;;;;;;;;;21154763;28;20681;-70
2022/07/28 21:56:33;;;;;;;2.20;0.40;;;;;;;;;;21165765;28;20322;-71
2022/07/28 22:06:34;;;;;;;4.43;0.40;;;;;;;;;;21147834;28;20255;-71
2022/07/28 22:16:36;;;;;;;0.40;0.38;;;;;;;;;;21163847;28;20712;-71
2022/07/28 22:26:38;;;;;;;1.55;0.50;;;;;;;;;;21163332;28;20720;-71
2022/07/28 22:36:40;;;;;;;1.85;0.50;;;;;;;;;;21162999;28;20268;-70
2022/07/28 22:46:41;;;;;;;1.48;0.50;;;;;;;;;;21142705;28;20254;-70
2022/07/28 22:56:44;;;;;;;0.93;0.50;;;;;;;;;;21161737;28;20217;-70
2022/07/28 23:06:45;;;;;;;1.25;0.70;;;;;;;;;;21158587;28;20203;-70
2022/07/28 23:16:47;;;;;;;1.25;0.52;;;;;;;;;;21148068;28;20225;-70
2022/07/28 23:26:48;;;;;;;1.35;0.60;;;;;;;;;;21158382;28;20599;-70
2022/07/28 23:36:50;;;;;;;2.58;0.60;;;;;;;;;;21157013;28;20214;-70
2022/07/28 23:46:52;;;;;;;1.85;0.57;;;;;;;;;;21126433;28;20689;-70
2022/07/28 23:56:56;;;;;;;1.60;0.60;;;;;;;;;;21129487;28;20219;-70
